Airfield :
LOGIN :

Register | Disclaimer

   EN    FR    IT 

 










Legend :    VFR   Marginal VFR   IFR   Intensive IFR   Very Intensive IFR
Visi :
Ceiling :
>= 8 km
>= 3000ft
5 to 8 km
1000 to 3000 ft
1500m to 5 km
500 to 1000 ft
800 to 1500m
200 to 500 ft
< 800m
< 200 ft
Symbols :   Thunderstorms  Fog  Heavy snow  Heavy precipitations  Wind > 20 kt
SIGMETs :     Misc.  Thunderstorms  Icing  Turbulence  Mountain Waves  Volcanic Ashes







- Airport Elevation : 11 ft
- IATA code : SXL


EISG - Sligo

METAR N/A
TAF TAF EISG
Valid from the 21 at 09:00 until the 21 at 18:00 UTC


210800Z 2109/2118 17007KT 9999 -RA SCT012 BKN020
BECMG 2109/2111 16013KT
TEMPO 2109/2110 BKN012
TEMPO 2111/2115 16015G25KT
TEMPO 2110/2118 5000 -RA BKN010 SCT018CB
PROB40
TEMPO 2110/2118 4000 RA
BECMG 2116/2118 21009KT
No reported NOTAMs for that airfield.
1 SIGMET reported for the Shannon FIR (EISN) :
 
Embedded thunderstorms
EISN SIGMET 03 VALID 210700/211000 EINN
EISN SHANNON FIR/UIR EMBD TS OBS WI N5400 W01500 - N5430 W01035 - N5320 W01500 - N5400 W01500 TOP FL250 MOV ENE 25KT NC=



MET'MAP, your aeronautical weather chart ! - Copyright ORBIFLY December 2007 - Disclaimer

ORBIFLY MET'MAP TEAM :

Programming & Development : Alexandra Zaïnal
Concept & Development : Baudouin d'Aumeries
Co-Development & Prog : Marc-Olivier Méhu
Technical & hardware support : Manuel Goepfert

Contact : metmap@orbifly.com




SOURCES & CREDITS :

   NOAA